createdAt,value
2019-05-29T05:33:21.416Z,91.80
2019-05-29T05:34:21.304Z,90.92
2019-05-29T05:35:21.252Z,90.92
2019-05-29T05:36:21.246Z,90.41
2019-05-29T05:37:21.338Z,89.28
2019-05-29T05:38:21.182Z,90.26
2019-05-29T05:39:21.170Z,90.51
2019-05-29T05:40:21.143Z,90.81
2019-05-29T05:41:21.093Z,89.89
2019-05-29T05:42:21.109Z,89.69
2019-05-29T05:43:24.074Z,89.69
2019-05-29T05:44:21.103Z,90.51
2019-05-29T05:45:21.079Z,90.61
2019-05-29T05:46:21.030Z,91.13
2019-05-29T05:47:21.043Z,90.51
2019-05-29T05:48:21.031Z,89.38
2019-05-29T05:49:21.045Z,89.38
2019-05-29T05:50:21.033Z,91.13
2019-05-29T05:51:20.979Z,91.02
2019-05-29T05:52:20.975Z,91.08
2019-05-29T05:53:20.983Z,91.33
2019-05-29T05:54:20.968Z,91.44
2019-05-29T05:55:20.972Z,91.29
2019-05-29T05:56:20.945Z,91.53
2019-05-29T05:57:20.909Z,91.44
2019-05-29T05:58:20.921Z,91.39
2019-05-29T05:59:20.908Z,91.08
2019-05-29T06:00:20.879Z,90.88
2019-05-29T06:01:20.955Z,90.67
2019-05-29T06:02:20.853Z,90.36
2019-05-29T06:03:20.855Z,91.19
2019-05-29T06:04:20.850Z,90.57
2019-05-29T06:05:20.844Z,90.16
2019-05-29T06:06:20.823Z,89.48
2019-05-29T06:07:20.837Z,89.54
2019-05-29T06:08:20.805Z,89.64
2019-05-29T06:09:20.827Z,89.13
2019-05-29T06:10:20.784Z,90.16
2019-05-29T06:11:20.780Z,90.47
2019-05-29T06:12:20.757Z,90.36
2019-05-29T06:13:20.775Z,89.64
2019-05-29T06:14:20.747Z,89.85
2019-05-29T06:15:20.721Z,89.85
2019-05-29T06:16:20.724Z,89.23
2019-05-29T06:17:22.021Z,89.38
2019-05-29T06:18:21.937Z,89.89
2019-05-29T06:19:20.734Z,89.64
2019-05-29T06:20:20.693Z,90.72
2019-05-29T06:21:20.661Z,90.20
2019-05-29T06:22:20.655Z,90.61
2019-05-29T06:23:20.623Z,90.06
2019-05-29T06:24:20.656Z,90.51
2019-05-29T06:25:20.620Z,91.02
2019-05-29T06:26:20.607Z,91.13
2019-05-29T06:27:20.581Z,91.33
2019-05-29T06:28:20.584Z,91.95
2019-05-29T06:29:20.549Z,92.42
2019-05-29T06:30:20.592Z,90.78
2019-05-29T06:31:20.581Z,91.49
2019-05-29T06:32:20.525Z,91.80
2019-05-29T06:33:20.520Z,92.16
2019-05-29T06:34:20.511Z,90.67
2019-05-29T06:35:20.503Z,91.08
2019-05-29T06:36:20.510Z,90.57
2019-05-29T06:37:20.478Z,91.29
2019-05-29T06:38:20.501Z,90.67
2019-05-29T06:39:20.440Z,90.78
2019-05-29T06:40:20.452Z,90.98
2019-05-29T06:41:20.478Z,91.39
2019-05-29T06:42:20.416Z,91.45
2019-05-29T06:43:20.413Z,90.98
2019-05-29T06:44:20.392Z,90.88
2019-05-29T06:45:20.388Z,91.19
2019-05-29T06:46:20.382Z,91.29
2019-05-29T06:47:20.389Z,92.07
2019-05-29T06:48:37.905Z,92.07
2019-05-29T06:49:21.337Z,91.86
2019-05-29T06:50:20.312Z,91.86
2019-05-29T06:51:20.340Z,91.45
2019-05-29T06:52:20.365Z,92.33
2019-05-29T06:53:20.305Z,92.03
2019-05-29T06:54:20.281Z,91.93
2019-05-29T06:55:20.264Z,91.20
2019-05-29T06:56:20.257Z,89.36
2019-05-29T06:57:20.257Z,89.25
2019-05-29T06:58:20.283Z,89.56
2019-05-29T06:59:20.232Z,90.18
2019-05-29T07:00:34.336Z,90.28
2019-05-29T07:01:21.214Z,87.82
2019-05-29T07:02:20.194Z,88.74
2019-05-29T07:03:20.234Z,88.84
2019-05-29T07:04:20.164Z,89.46
2019-05-29T07:05:20.196Z,90.48
2019-05-29T07:06:20.151Z,89.72
2019-05-29T07:07:20.130Z,88.43
2019-05-29T07:08:35.164Z,88.59
2019-05-29T07:09:21.136Z,89.21
2019-05-29T07:10:20.094Z,88.90
2019-05-29T07:11:20.105Z,89.21
2019-05-29T07:12:20.091Z,89.37
2019-05-29T07:13:20.093Z,88.76
2019-05-29T07:14:20.118Z,89.99
2019-05-29T07:15:20.054Z,87.43
2019-05-29T07:16:20.054Z,87.38
2019-05-29T07:17:20.127Z,88.51
2019-05-29T07:18:20.090Z,89.13
2019-05-29T07:19:32.735Z,89.09
2019-05-29T07:20:21.037Z,89.09
2019-05-29T07:21:19.964Z,86.52
2019-05-29T07:22:19.983Z,86.42
2019-05-29T07:23:19.940Z,86.90
2019-05-29T07:24:19.944Z,87.85
2019-05-29T07:25:19.938Z,87.41
2019-05-29T07:26:19.966Z,88.33
2019-05-29T07:27:19.919Z,87.51
2019-05-29T07:28:19.897Z,85.72
2019-05-29T07:29:19.887Z,83.20
2019-05-29T07:30:19.873Z,83.72
2019-05-29T07:31:19.853Z,84.44
2019-05-29T07:32:19.873Z,85.93
2019-05-29T07:33:19.885Z,84.84
2019-05-29T07:34:19.840Z,83.82
2019-05-29T07:35:19.827Z,84.03
2019-05-29T07:36:19.822Z,85.05
2019-05-29T07:37:19.843Z,86.44
2019-05-29T07:38:19.800Z,86.44
2019-05-29T07:39:19.783Z,85.42
2019-05-29T07:40:19.769Z,84.23
2019-05-29T07:41:19.763Z,85.25
2019-05-29T07:42:19.792Z,85.56
2019-05-29T07:43:19.789Z,84.03
2019-05-29T07:44:19.735Z,85.36
2019-05-29T07:45:19.721Z,84.95
2019-05-29T07:46:19.730Z,85.97
2019-05-29T07:47:19.710Z,87.61
2019-05-29T07:48:19.710Z,87.30
2019-05-29T07:49:19.668Z,87.92
2019-05-29T07:50:19.706Z,85.77
2019-05-29T07:51:19.648Z,85.87
2019-05-29T07:52:19.646Z,85.72
2019-05-29T07:53:19.643Z,86.14
2019-05-29T07:54:19.640Z,86.04
2019-05-29T07:55:19.603Z,86.65
2019-05-29T07:56:23.133Z,85.22
2019-05-29T07:57:19.578Z,84.91
2019-05-29T07:58:19.550Z,85.72
2019-05-29T07:59:19.582Z,87.47
2019-05-29T08:00:19.650Z,85.22
2019-05-29T08:01:19.541Z,85.87
2019-05-29T08:02:19.533Z,87.30
2019-05-29T08:03:19.523Z,85.97
2019-05-29T08:04:19.538Z,85.97
2019-05-29T08:05:19.507Z,86.73
2019-05-29T08:06:19.475Z,85.77
2019-05-29T08:07:19.470Z,87.55
2019-05-29T08:08:19.457Z,87.41
2019-05-29T08:09:19.442Z,88.08
2019-05-29T08:10:19.472Z,88.29
2019-05-29T08:11:19.418Z,87.98
2019-05-29T08:12:19.429Z,87.73
2019-05-29T08:13:19.604Z,86.98
2019-05-29T08:14:19.406Z,86.05
2019-05-29T08:15:19.382Z,85.75
2019-05-29T08:16:19.391Z,85.75
2019-05-29T08:17:19.370Z,86.67
2019-05-29T08:18:19.359Z,85.96
2019-05-29T08:19:19.335Z,86.77
2019-05-29T08:20:19.310Z,84.93
2019-05-29T08:21:19.374Z,83.50
2019-05-29T08:22:33.306Z,83.39
2019-05-29T08:23:20.356Z,82.37
2019-05-29T08:24:19.279Z,83.33
2019-05-29T08:25:19.256Z,84.56
2019-05-29T08:26:19.257Z,84.15
2019-05-29T08:27:19.251Z,82.31
2019-05-29T08:28:19.234Z,85.48
2019-05-29T08:29:19.239Z,84.66
2019-05-29T08:30:19.210Z,83.23
2019-05-29T08:31:19.197Z,82.82
2019-05-29T08:32:19.253Z,83.84
2019-05-29T08:33:19.186Z,84.93
2019-05-29T08:34:19.159Z,85.14
2019-05-29T08:35:19.167Z,84.38
2019-05-29T08:36:19.139Z,83.36
2019-05-29T08:37:19.137Z,80.43
2019-05-29T08:38:19.170Z,80.33
2019-05-29T08:39:33.883Z,81.29
2019-05-29T08:40:20.095Z,81.79
2019-05-29T08:41:19.184Z,83.13
2019-05-29T08:42:23.368Z,82.71
2019-05-29T08:43:19.069Z,83.23
2019-05-29T08:44:19.086Z,82.96
2019-05-29T08:45:19.039Z,80.81
2019-05-29T08:46:19.607Z,82.10
2019-05-29T08:47:19.083Z,82.04
2019-05-29T08:48:19.020Z,84.09
2019-05-29T08:49:19.006Z,83.13
2019-05-29T08:50:19.452Z,82.51
2019-05-29T08:51:19.030Z,81.90
2019-05-29T08:52:18.961Z,83.03
2019-05-29T08:53:18.962Z,83.95
2019-05-29T08:54:23.859Z,83.39
2019-05-29T08:55:19.989Z,83.66
2019-05-29T08:56:18.946Z,80.53
2019-05-29T08:57:18.909Z,80.33
2019-05-29T08:58:18.963Z,80.12
2019-05-29T08:59:18.891Z,81.86
2019-05-29T09:00:18.882Z,81.65
2019-05-29T09:01:18.888Z,82.37
2019-05-29T09:02:18.897Z,81.24
2019-05-29T09:03:18.900Z,82.17
2019-05-29T09:04:18.858Z,82.34
2019-05-29T09:05:18.829Z,82.34
2019-05-29T09:06:18.964Z,81.21
2019-05-29T09:07:18.829Z,81.82
2019-05-29T09:08:18.785Z,82.09
2019-05-29T09:09:18.795Z,81.17
2019-05-29T09:10:18.821Z,83.01
2019-05-29T09:11:18.778Z,83.22
2019-05-29T09:12:18.801Z,81.38
2019-05-29T09:13:18.762Z,79.74
2019-05-29T09:14:18.719Z,78.52
2019-05-29T09:15:21.233Z,80.76
2019-05-29T09:16:18.725Z,81.38
2019-05-29T09:17:18.707Z,81.07
2019-05-29T09:18:19.710Z,80.73
2019-05-29T09:19:18.971Z,80.73
2019-05-29T09:20:31.981Z,79.60
2019-05-29T09:21:20.570Z,80.01
2019-05-29T09:22:18.649Z,79.91
2019-05-29T09:23:18.952Z,80.93
2019-05-29T09:24:19.376Z,80.93
2019-05-29T09:25:19.125Z,80.89
2019-05-29T09:26:22.425Z,80.18
2019-05-29T09:27:19.591Z,80.79
2019-05-29T09:28:20.332Z,78.44
2019-05-29T09:29:21.812Z,79.05
2019-05-29T09:30:20.077Z,78.88
2019-05-29T09:31:19.944Z,80.18
2019-05-29T09:32:31.139Z,80.18
2019-05-29T09:33:21.317Z,81.10
2019-05-29T09:34:18.855Z,80.18
2019-05-29T09:35:20.157Z,78.75
2019-05-29T09:36:18.822Z,74.90
2019-05-29T09:37:19.030Z,76.98
2019-05-29T09:38:18.896Z,78.75
2019-05-29T09:39:19.539Z,78.65
2019-05-29T09:40:18.970Z,79.16
2019-05-29T09:41:19.046Z,80.19
2019-05-29T09:42:20.203Z,80.39
2019-05-29T09:43:19.791Z,81.27
2019-05-29T09:44:31.368Z,81.41
2019-05-29T09:45:19.724Z,80.76
2019-05-29T09:46:19.997Z,79.94
2019-05-29T09:47:19.041Z,81.44
2019-05-29T09:48:21.726Z,82.22
2019-05-29T09:49:20.242Z,80.07
2019-05-29T09:50:18.874Z,79.16
2019-05-29T09:51:21.548Z,75.58
2019-05-29T09:52:18.327Z,76.40
2019-05-29T09:53:18.299Z,75.89
2019-05-29T09:54:18.399Z,77.31
2019-05-29T09:55:18.262Z,76.46
2019-05-29T09:56:18.261Z,77.28
2019-05-29T09:57:18.313Z,77.89
2019-05-29T09:58:18.246Z,78.37
2019-05-29T09:59:18.217Z,76.12
2019-05-29T10:00:18.272Z,75.71
2019-05-29T10:01:24.119Z,73.47
2019-05-29T10:02:19.215Z,73.88
2019-05-29T10:03:18.207Z,73.94
2019-05-29T10:04:19.065Z,76.39
2019-05-29T10:05:18.170Z,74.35
2019-05-29T10:06:18.162Z,72.72
2019-05-29T10:07:18.123Z,72.92
2019-05-29T10:08:18.146Z,73.64
2019-05-29T10:09:18.122Z,75.48
2019-05-29T10:10:18.104Z,76.39
2019-05-29T10:11:18.099Z,73.91
2019-05-29T10:12:18.076Z,73.91
2019-05-29T10:13:18.127Z,72.28
2019-05-29T10:14:18.050Z,74.11
2019-05-29T10:15:18.074Z,73.43
2019-05-29T10:16:18.026Z,73.13
2019-05-29T10:17:18.032Z,72.69
2019-05-29T10:18:31.491Z,75.95
2019-05-29T10:19:19.022Z,76.35
2019-05-29T10:20:17.998Z,72.89
2019-05-29T10:21:17.967Z,73.40
2019-05-29T10:22:18.021Z,70.85
2019-05-29T10:23:20.041Z,73.97
2019-05-29T10:24:17.933Z,74.49
2019-05-29T10:25:17.943Z,74.35
2019-05-29T10:26:17.923Z,73.84
2019-05-29T10:27:17.903Z,71.91
2019-05-29T10:28:17.899Z,68.75
2019-05-29T10:29:17.912Z,67.25
2019-05-29T10:30:17.900Z,69.09
2019-05-29T10:31:17.894Z,69.12
2019-05-29T10:32:17.828Z,69.32
2019-05-29T10:33:17.854Z,70.54
2019-05-29T10:34:17.847Z,73.91
2019-05-29T10:35:17.842Z,72.79
2019-05-29T10:36:17.826Z,72.45
2019-05-29T10:37:18.392Z,70.92
2019-05-29T10:38:17.783Z,70.72
2019-05-29T10:39:17.766Z,69.09
2019-05-29T10:40:17.766Z,70.10
2019-05-29T10:41:17.778Z,71.33
2019-05-29T10:42:20.524Z,71.73
2019-05-29T10:43:33.204Z,70.48
2019-05-29T10:44:18.741Z,70.78
2019-05-29T10:45:17.686Z,68.13
2019-05-29T10:46:17.723Z,71.91
2019-05-29T10:47:17.699Z,67.32
2019-05-29T10:48:17.664Z,70.28
2019-05-29T10:49:17.681Z,73.50
2019-05-29T10:50:17.630Z,70.14
2019-05-29T10:51:17.630Z,70.65
2019-05-29T10:52:17.754Z,69.02
2019-05-29T10:53:17.615Z,69.12
2019-05-29T10:54:17.597Z,70.86
2019-05-29T10:55:17.576Z,69.84
2019-05-29T10:56:21.097Z,69.32
2019-05-29T10:57:17.562Z,72.14
2019-05-29T10:58:17.565Z,67.66
2019-05-29T10:59:17.558Z,67.87
2019-05-29T11:00:17.545Z,67.60
2019-05-29T11:01:17.553Z,67.97
2019-05-29T11:02:17.573Z,68.48
2019-05-29T11:03:17.612Z,70.58
2019-05-29T11:04:17.493Z,70.18
2019-05-29T11:05:17.486Z,66.72
2019-05-29T11:06:17.463Z,67.63
2019-05-29T11:07:17.462Z,69.06
2019-05-29T11:08:17.444Z,67.63
2019-05-29T11:09:17.467Z,68.75
2019-05-29T11:10:17.424Z,68.85
2019-05-29T11:11:17.402Z,67.19
2019-05-29T11:12:17.425Z,68.14
2019-05-29T11:13:17.383Z,68.11
2019-05-29T11:14:17.377Z,66.21
2019-05-29T11:15:21.569Z,66.41
2019-05-29T11:16:17.381Z,66.92
2019-05-29T11:17:17.325Z,67.46
2019-05-29T11:18:17.354Z,67.36
2019-05-29T11:19:18.357Z,65.46
2019-05-29T11:20:17.333Z,67.08
2019-05-29T11:21:17.305Z,68.41
2019-05-29T11:22:26.119Z,69.73
2019-05-29T11:23:18.259Z,68.92
2019-05-29T11:24:17.274Z,70.45
2019-05-29T11:25:23.713Z,72.38
2019-05-29T11:26:18.251Z,69.15
2019-05-29T11:27:17.235Z,69.09
2019-05-29T11:28:17.259Z,69.09
2019-05-29T11:29:17.268Z,70.24
2019-05-29T11:30:17.241Z,71.02
2019-05-29T11:31:17.269Z,70.92
2019-05-29T11:32:17.201Z,71.53
2019-05-29T11:33:17.185Z,70.82
2019-05-29T11:34:17.154Z,72.04
2019-05-29T11:35:17.149Z,71.84
2019-05-29T11:36:17.192Z,72.34
2019-05-29T11:37:17.133Z,72.45
2019-05-29T11:38:17.113Z,73.26
2019-05-29T11:39:17.169Z,73.67
2019-05-29T11:40:17.085Z,72.69
2019-05-29T11:41:25.634Z,73.36
2019-05-29T11:42:27.485Z,73.57
2019-05-29T11:43:18.099Z,72.75
2019-05-29T11:44:17.050Z,72.55
2019-05-29T11:45:17.043Z,72.65
2019-05-29T11:46:17.019Z,72.14
2019-05-29T11:47:17.015Z,71.94
2019-05-29T11:48:17.020Z,72.28
2019-05-29T11:49:16.991Z,73.71
2019-05-29T11:50:19.938Z,73.33
2019-05-29T11:51:16.975Z,73.23
2019-05-29T11:52:24.432Z,74.05
2019-05-29T11:53:17.971Z,74.25
2019-05-29T11:54:16.928Z,74.76
2019-05-29T11:55:16.911Z,74.86
2019-05-29T11:56:16.928Z,74.76
2019-05-29T11:57:16.900Z,74.08
2019-05-29T11:58:30.608Z,74.69
2019-05-29T11:59:17.882Z,74.90
2019-05-29T12:00:20.219Z,74.49
2019-05-29T12:01:16.843Z,73.47
2019-05-29T12:02:16.839Z,74.05
2019-05-29T12:03:16.827Z,73.94
2019-05-29T12:04:25.737Z,74.01
2019-05-29T12:05:16.809Z,73.10
2019-05-29T12:06:16.809Z,72.75
2019-05-29T12:07:16.791Z,72.24
2019-05-29T12:08:16.757Z,69.46
2019-05-29T12:09:31.394Z,71.80
2019-05-29T12:10:17.870Z,73.30
2019-05-29T12:11:16.737Z,71.12
2019-05-29T12:12:16.744Z,70.10
2019-05-29T12:13:17.582Z,68.99
2019-05-29T12:14:16.684Z,66.35
2019-05-29T12:15:18.700Z,67.36
2019-05-29T12:16:16.714Z,67.26
2019-05-29T12:17:16.690Z,69.19
2019-05-29T12:18:23.695Z,66.44
2019-05-29T12:19:17.639Z,65.46
2019-05-29T12:20:31.385Z,67.29
2019-05-29T12:21:17.647Z,69.84
2019-05-29T12:22:16.611Z,68.99
2019-05-29T12:23:25.956Z,68.48
2019-05-29T12:24:17.618Z,67.36
2019-05-29T12:25:16.562Z,70.07
2019-05-29T12:26:22.710Z,68.92
2019-05-29T12:27:17.668Z,68.99
2019-05-29T12:28:16.570Z,66.52
2019-05-29T12:29:16.546Z,65.10
2019-05-29T12:30:16.574Z,62.90
2019-05-29T12:31:16.516Z,65.74
2019-05-29T12:32:16.564Z,65.44
2019-05-29T12:33:16.522Z,67.36
2019-05-29T12:34:19.363Z,67.03
2019-05-29T12:35:16.474Z,66.22
2019-05-29T12:36:16.460Z,67.50
2019-05-29T12:37:16.459Z,66.90
2019-05-29T12:38:16.514Z,66.60
2019-05-29T12:39:16.442Z,62.66
2019-05-29T12:40:16.422Z,65.44
2019-05-29T12:41:16.407Z,65.36
2019-05-29T12:42:16.393Z,65.30
2019-05-29T12:43:26.372Z,65.60
2019-05-29T12:44:17.403Z,65.53
2019-05-29T12:45:16.355Z,67.57
2019-05-29T12:46:16.353Z,65.22
2019-05-29T12:47:16.340Z,65.16
2019-05-29T12:48:16.816Z,67.66
2019-05-29T12:49:16.298Z,67.26
2019-05-29T12:50:16.328Z,67.16
2019-05-29T12:51:16.297Z,67.05
2019-05-29T12:52:16.262Z,63.70
2019-05-29T12:53:29.841Z,64.79
2019-05-29T12:54:17.251Z,60.54
2019-05-29T12:55:16.252Z,64.00
2019-05-29T12:56:16.243Z,65.30
2019-05-29T12:57:16.193Z,61.83
2019-05-29T12:58:16.202Z,65.09
2019-05-29T12:59:16.191Z,66.99
2019-05-29T13:00:16.187Z,63.84
2019-05-29T13:01:16.265Z,64.25
2019-05-29T13:02:16.150Z,64.25
2019-05-29T13:03:16.158Z,63.57
2019-05-29T13:04:16.143Z,66.31
2019-05-29T13:05:20.416Z,66.31
2019-05-29T13:06:16.155Z,66.21
2019-05-29T13:07:16.131Z,66.61
2019-05-29T13:08:16.070Z,66.31
2019-05-29T13:09:16.085Z,66.61
2019-05-29T13:10:29.411Z,65.43
2019-05-29T13:11:17.079Z,66.04
2019-05-29T13:12:16.049Z,66.65
2019-05-29T13:13:16.043Z,66.04
2019-05-29T13:14:16.072Z,64.89
2019-05-29T13:15:16.012Z,66.72
2019-05-29T13:16:15.998Z,65.30
2019-05-29T13:17:16.003Z,63.74
2019-05-29T13:18:16.034Z,63.60
2019-05-29T13:19:15.982Z,64.52
2019-05-29T13:20:21.703Z,61.27
2019-05-29T13:21:15.967Z,58.33
2019-05-29T13:22:15.972Z,60.86
2019-05-29T13:23:15.924Z,59.37
2019-05-29T13:24:15.934Z,62.41
2019-05-29T13:25:15.905Z,64.58
2019-05-29T13:26:15.898Z,63.43
2019-05-29T13:27:15.944Z,63.87
2019-05-29T13:28:15.852Z,64.28
2019-05-29T13:29:15.862Z,64.69
2019-05-29T13:30:15.881Z,64.18
2019-05-29T13:31:15.958Z,63.06
2019-05-29T13:32:15.860Z,63.36
2019-05-29T13:33:15.841Z,63.87
2019-05-29T13:34:15.839Z,64.99
2019-05-29T13:35:15.821Z,62.45
2019-05-29T13:36:15.827Z,63.67
2019-05-29T13:37:15.773Z,64.28
2019-05-29T13:38:15.778Z,64.79
2019-05-29T13:39:15.818Z,66.52
2019-05-29T13:40:15.738Z,65.60
2019-05-29T13:41:15.780Z,66.69
2019-05-29T13:42:15.709Z,65.36
2019-05-29T13:43:16.178Z,64.55
2019-05-29T13:44:15.667Z,63.81
2019-05-29T13:45:18.136Z,65.20
2019-05-29T13:46:15.655Z,65.30
2019-05-29T13:47:15.683Z,64.18
2019-05-29T13:48:15.670Z,64.26
2019-05-29T13:49:15.645Z,62.53
2019-05-29T13:50:15.620Z,62.94
2019-05-29T13:51:15.621Z,62.81
2019-05-29T13:52:15.606Z,61.69
2019-05-29T13:53:15.611Z,61.36
2019-05-29T13:54:18.170Z,57.60
2019-05-29T13:55:15.599Z,58.01
2019-05-29T13:56:15.548Z,60.42
2019-05-29T13:57:15.595Z,59.53
2019-05-29T13:58:15.556Z,57.91
2019-05-29T13:59:15.531Z,57.84
2019-05-29T14:00:34.305Z,59.36
2019-05-29T14:01:16.503Z,60.88
2019-05-29T14:02:15.522Z,59.66
2019-05-29T14:03:15.491Z,60.68
2019-05-29T14:04:15.496Z,60.20
2019-05-29T14:05:15.482Z,58.27
2019-05-29T14:06:15.445Z,59.69
2019-05-29T14:07:15.459Z,62.43
2019-05-29T14:08:15.431Z,62.74
2019-05-29T14:09:15.485Z,62.71
2019-05-29T14:10:15.395Z,63.21
2019-05-29T14:11:15.396Z,61.87
2019-05-29T14:12:15.385Z,56.99
2019-05-29T14:13:15.436Z,58.04
2019-05-29T14:14:15.355Z,59.97
2019-05-29T14:15:15.373Z,59.36
2019-05-29T14:16:15.316Z,57.93
2019-05-29T14:17:15.319Z,60.58
2019-05-29T14:18:15.296Z,58.95
2019-05-29T14:19:15.352Z,58.95
2019-05-29T14:20:15.309Z,59.16
2019-05-29T14:21:15.282Z,58.88
2019-05-29T14:22:15.261Z,60.40
2019-05-29T14:23:15.227Z,60.71
2019-05-29T14:24:28.190Z,60.53
2019-05-29T14:25:16.776Z,60.53
2019-05-29T14:26:15.234Z,62.26
2019-05-29T14:27:15.303Z,63.37
2019-05-29T14:28:15.456Z,61.75
2019-05-29T14:29:15.259Z,60.63
2019-05-29T14:30:15.177Z,63.00
2019-05-29T14:31:15.250Z,61.37
2019-05-29T14:32:16.033Z,61.75
2019-05-29T14:33:17.358Z,59.34
2019-05-29T14:34:15.724Z,60.18
2019-05-29T14:35:15.274Z,61.10
2019-05-29T14:36:15.150Z,62.21
2019-05-29T14:37:15.361Z,62.32
2019-05-29T14:38:16.340Z,63.43
2019-05-29T14:39:15.134Z,63.00
2019-05-29T14:40:15.154Z,61.78
2019-05-29T14:41:15.080Z,59.82
2019-05-29T14:42:15.917Z,58.73
2019-05-29T14:43:15.665Z,62.70
2019-05-29T14:44:17.089Z,62.36
2019-05-29T14:45:14.985Z,61.75
2019-05-29T14:46:15.016Z,61.24
2019-05-29T14:47:14.987Z,62.26
2019-05-29T14:48:14.971Z,60.94
2019-05-29T14:49:14.965Z,60.43
2019-05-29T14:50:15.027Z,60.63
2019-05-29T14:51:15.006Z,58.09
2019-05-29T14:52:14.930Z,57.68
2019-05-29T14:53:14.941Z,59.62
2019-05-29T14:54:14.910Z,59.92
2019-05-29T14:55:18.018Z,61.07
2019-05-29T14:56:15.990Z,63.28
2019-05-29T14:57:25.640Z,60.47
2019-05-29T14:58:15.948Z,58.14
2019-05-29T14:59:14.858Z,60.35
2019-05-29T15:00:24.434Z,57.07
2019-05-29T15:01:14.812Z,58.56
2019-05-29T15:02:21.742Z,58.74
2019-05-29T15:03:15.797Z,59.52
2019-05-29T15:04:14.852Z,59.01
2019-05-29T15:05:15.189Z,53.52
2019-05-29T15:06:14.845Z,54.53
2019-05-29T15:07:14.809Z,58.58
2019-05-29T15:08:14.772Z,55.15
2019-05-29T15:09:14.776Z,54.51
2019-05-29T15:10:26.258Z,55.29
2019-05-29T15:11:15.697Z,53.50
2019-05-29T15:12:14.751Z,51.40
2019-05-29T15:13:15.465Z,53.25
2019-05-29T15:14:14.682Z,55.70
2019-05-29T15:15:16.499Z,53.78
2019-05-29T15:16:14.949Z,54.82
2019-05-29T15:17:15.587Z,54.11
2019-05-29T15:18:18.280Z,54.92
2019-05-29T15:19:15.236Z,55.60
2019-05-29T15:20:16.758Z,55.80
2019-05-29T15:21:15.356Z,57.80
2019-05-29T15:22:16.001Z,55.85
2019-05-29T15:23:15.765Z,55.82
2019-05-29T15:24:15.896Z,55.85
2019-05-29T15:25:23.532Z,56.53
2019-05-29T15:26:15.847Z,55.80
2019-05-29T15:27:14.553Z,53.85
2019-05-29T15:28:16.023Z,53.96
2019-05-29T15:29:16.436Z,51.93
2019-05-29T15:30:19.990Z,51.63
2019-05-29T15:31:14.705Z,53.80
2019-05-29T15:32:14.700Z,54.31
2019-05-29T15:33:14.929Z,53.52
2019-05-29T15:34:14.547Z,55.04
2019-05-29T15:35:17.811Z,53.83
2019-05-29T15:36:16.851Z,54.49
2019-05-29T15:37:16.970Z,53.07
2019-05-29T15:38:14.895Z,53.93
2019-05-29T15:39:14.682Z,56.16
2019-05-29T15:40:14.937Z,59.63
2019-05-29T15:41:14.862Z,58.01
2019-05-29T15:42:15.046Z,57.71
2019-05-29T15:43:15.291Z,56.70
2019-05-29T15:44:15.039Z,57.03
2019-05-29T15:45:14.341Z,55.91
2019-05-29T15:46:15.965Z,56.72
2019-05-29T15:47:14.978Z,57.93
2019-05-29T15:48:15.287Z,57.73
2019-05-29T15:49:15.201Z,58.47
2019-05-29T15:50:16.009Z,58.85
2019-05-29T15:51:15.102Z,58.82
2019-05-29T15:52:15.226Z,57.17
2019-05-29T15:53:15.219Z,55.98
2019-05-29T15:54:15.305Z,57.58
2019-05-29T15:55:31.843Z,59.50
2019-05-29T15:56:25.396Z,57.45
2019-05-29T15:57:15.230Z,59.68
2019-05-29T15:58:15.292Z,57.58
2019-05-29T15:59:14.944Z,57.28
2019-05-29T16:00:15.465Z,59.38
2019-05-29T16:01:15.654Z,57.65
2019-05-29T16:02:15.626Z,56.31
2019-05-29T16:03:14.123Z,56.21
2019-05-29T16:04:14.103Z,54.46
2019-05-29T16:05:15.406Z,55.65
2019-05-29T16:06:14.158Z,53.55
2019-05-29T16:07:14.133Z,53.83
2019-05-29T16:08:14.104Z,52.61
2019-05-29T16:09:14.307Z,53.32
2019-05-29T16:10:16.434Z,53.63
2019-05-29T16:11:14.620Z,53.83
2019-05-29T16:12:14.764Z,52.51
2019-05-29T16:13:15.273Z,57.07
2019-05-29T16:14:14.932Z,56.13
2019-05-29T16:15:15.387Z,56.10
2019-05-29T16:16:15.292Z,54.49
2019-05-29T16:17:15.175Z,51.35
2019-05-29T16:18:26.206Z,54.00
2019-05-29T16:19:16.032Z,52.61
2019-05-29T16:20:14.475Z,53.42
2019-05-29T16:21:14.747Z,52.61
2019-05-29T16:22:14.377Z,53.40
2019-05-29T16:23:31.060Z,51.48
2019-05-29T16:24:14.890Z,54.91
2019-05-29T16:25:14.943Z,54.91
2019-05-29T16:26:15.063Z,55.09
2019-05-29T16:27:14.071Z,54.69
2019-05-29T16:28:15.075Z,51.65
2019-05-29T16:29:15.957Z,51.90
2019-05-29T16:30:15.566Z,52.23
2019-05-29T16:31:14.869Z,53.85
2019-05-29T16:32:13.798Z,54.36
2019-05-29T16:33:14.991Z,52.54
2019-05-29T16:34:14.635Z,52.21
2019-05-29T16:35:14.941Z,51.62
2019-05-29T16:36:14.564Z,55.27
2019-05-29T16:37:13.809Z,53.34
2019-05-29T16:38:14.192Z,54.56
2019-05-29T16:39:13.789Z,54.44
2019-05-29T16:40:14.305Z,54.71
2019-05-29T16:41:13.839Z,55.11
2019-05-29T16:42:14.003Z,55.93
2019-05-29T16:43:13.853Z,51.57
2019-05-29T16:44:14.114Z,51.48
2019-05-29T16:45:14.204Z,52.19
2019-05-29T16:46:17.110Z,53.02
2019-05-29T16:47:14.806Z,52.81
2019-05-29T16:48:14.577Z,53.07
2019-05-29T16:49:14.479Z,53.50
2019-05-29T16:50:15.001Z,54.51
2019-05-29T16:51:14.559Z,54.71
2019-05-29T16:52:14.905Z,54.33
2019-05-29T16:53:14.620Z,56.05
2019-05-29T16:54:14.622Z,55.04
2019-05-29T16:55:14.823Z,53.96
2019-05-29T16:56:14.693Z,55.88
2019-05-29T16:57:15.013Z,56.18
2019-05-29T16:58:13.508Z,55.98
2019-05-29T16:59:13.490Z,56.05
2019-05-29T17:00:13.871Z,56.16
2019-05-29T17:01:13.490Z,56.05
2019-05-29T17:02:13.750Z,55.55
2019-05-29T17:03:13.543Z,54.66
2019-05-29T17:04:13.576Z,55.78
2019-05-29T17:05:13.701Z,55.30
2019-05-29T17:06:13.711Z,55.30
2019-05-29T17:07:14.148Z,57.56
2019-05-29T17:08:14.054Z,57.15
2019-05-29T17:09:14.531Z,57.12
2019-05-29T17:10:14.305Z,56.41
2019-05-29T17:11:14.495Z,55.50
2019-05-29T17:12:14.289Z,56.31
2019-05-29T17:13:14.570Z,57.73
2019-05-29T17:14:14.400Z,57.64
2019-05-29T17:15:14.810Z,55.80
2019-05-29T17:16:14.376Z,59.23
2019-05-29T17:17:14.790Z,58.82
2019-05-29T17:18:14.645Z,56.18
2019-05-29T17:19:14.508Z,56.36
2019-05-29T17:20:14.557Z,59.20
2019-05-29T17:21:14.392Z,57.78
2019-05-29T17:22:14.485Z,58.16
2019-05-29T17:23:14.881Z,55.96
2019-05-29T17:24:14.556Z,56.64
2019-05-29T17:25:14.716Z,56.95
2019-05-29T17:26:14.538Z,56.64
2019-05-29T17:27:14.458Z,56.74
2019-05-29T17:28:13.165Z,56.54
2019-05-29T17:29:13.157Z,55.83
2019-05-29T17:30:14.439Z,57.32
2019-05-29T17:31:13.184Z,54.89
2019-05-29T17:32:13.143Z,54.28
2019-05-29T17:33:13.126Z,53.47
2019-05-29T17:34:13.098Z,54.41
2019-05-29T17:35:13.164Z,54.08
2019-05-29T17:36:13.136Z,52.76
2019-05-29T17:37:13.081Z,54.03
2019-05-29T17:38:13.081Z,57.48
2019-05-29T17:39:13.075Z,54.44
2019-05-29T17:40:13.030Z,55.47
2019-05-29T17:41:13.046Z,55.60
2019-05-29T17:42:13.066Z,55.60
2019-05-29T17:43:13.035Z,55.53
2019-05-29T17:44:13.065Z,56.04
2019-05-29T17:45:13.997Z,56.04
2019-05-29T17:46:12.965Z,56.57
2019-05-29T17:47:12.979Z,57.68
2019-05-29T17:48:13.011Z,58.29
2019-05-29T17:49:12.977Z,57.68
2019-05-29T17:50:12.975Z,57.18
2019-05-29T17:51:14.021Z,58.40
2019-05-29T17:52:12.992Z,58.50
2019-05-29T17:53:13.358Z,57.79
2019-05-29T17:54:13.017Z,58.09
2019-05-29T17:55:12.899Z,57.31
2019-05-29T17:56:25.385Z,57.10
2019-05-29T17:57:13.848Z,56.80
2019-05-29T17:58:12.869Z,58.12
2019-05-29T17:59:12.894Z,59.64
2019-05-29T18:00:12.807Z,58.94
2019-05-29T18:01:12.797Z,58.76
2019-05-29T18:02:12.804Z,62.11
2019-05-29T18:03:12.819Z,62.72
2019-05-29T18:04:12.768Z,61.81
2019-05-29T18:05:12.964Z,59.77
2019-05-29T18:06:12.739Z,61.30
2019-05-29T18:07:12.727Z,62.11
2019-05-29T18:08:12.727Z,62.62
2019-05-29T18:09:12.723Z,61.94
2019-05-29T18:10:12.707Z,63.57
2019-05-29T18:11:12.715Z,60.61
2019-05-29T18:12:12.684Z,61.56
2019-05-29T18:13:12.661Z,65.33
2019-05-29T18:14:12.660Z,62.27
2019-05-29T18:15:12.687Z,61.05
2019-05-29T18:16:12.693Z,61.15
2019-05-29T18:17:12.665Z,63.19
2019-05-29T18:18:12.633Z,63.09
2019-05-29T18:19:12.710Z,63.19
2019-05-29T18:20:14.693Z,63.93
2019-05-29T18:21:12.584Z,64.00
2019-05-29T18:22:12.640Z,62.71
2019-05-29T18:23:12.629Z,61.90
2019-05-29T18:24:12.548Z,63.93
2019-05-29T18:25:12.592Z,64.03